Погода Кызылаутна неделю

Жамбылская область, Казахстан

25 - 31 июля
  • 25июля
    Сегодня
    +24°
    +38°
    Практически безоблачно
    ВремяПогодаТемператураВлажностьДавлениеВетер, м/сВероятность осадков
    02:00Ясно и безоблачно+27°C32 %705 мм1.9 м/с2 %
    05:00Ясно и безоблачно+25°C38 %705 мм2.4 м/с2 %
    08:00Ясно и безоблачно+30°C28 %706 мм0.2 м/с2 %
    11:00Ясно и безоблачно+35°C21 %706 мм1.8 м/с2 %
    14:00Практически безоблачно+38°C17 %706 мм2.2 м/с2 %
    17:00Практически безоблачно+37°C19 %706 мм2.5 м/с2 %
    20:00Ясно и безоблачно+32°C30 %706 мм1.3 м/с2 %
    23:00Ясно и безоблачно+27°C35 %705 мм1.9 м/с2 %
  • 26июля
    Пятница
    +23°
    +40°
    Практически безоблачно
    ВремяПогодаТемператураВлажностьДавлениеВетер, м/сВероятность осадков
    02:00Ясно и безоблачно+25°C37 %705 мм1.9 м/с2 %
    05:00Ясно и безоблачно+25°C40 %705 мм1.8 м/с2 %
    08:00Ясно и безоблачно+32°C29 %707 мм1.6 м/с2 %
    11:00Практически безоблачно+40°C14 %708 мм2.8 м/с2 %
    14:00Практически безоблачно+40°C14 %708 мм4.9 м/с2 %
    17:00Ясно и безоблачно+39°C15 %708 мм4.4 м/с2 %
    20:00Ясно и безоблачно+34°C24 %708 мм3.8 м/с2 %
    23:00Ясно и безоблачно+29°C36 %709 мм2.6 м/с2 %
  • 27июля
    Суббота
    +22°
    +37°
    Ясно и безоблачно
    ВремяПогодаТемператураВлажностьДавлениеВетер, м/сВероятность осадков
    02:00Ясно и безоблачно+27°C35 %710 мм4.5 м/с2 %
    05:00Ясно и безоблачно+24°C35 %710 мм2.4 м/с2 %
    08:00Ясно и безоблачно+28°C30 %711 мм2.4 м/с2 %
    11:00Ясно и безоблачно+32°C24 %711 мм2.1 м/с2 %
    14:00Ясно и безоблачно+36°C22 %711 мм1.8 м/с2 %
    17:00Ясно и безоблачно+36°C21 %710 мм1.5 м/с2 %
    20:00Ясно и безоблачно+32°C30 %710 мм0.5 м/с2 %
    23:00Ясно и безоблачно+29°C26 %710 мм2.8 м/с2 %
  • 28июля
    Воскресенье
    +23°
    +37°
    Ясно и безоблачно
    ВремяПогодаТемператураВлажностьДавлениеВетер, м/сВероятность осадков
    02:00Ясно и безоблачно+25°C28 %710 мм2.0 м/с2 %
    05:00Ясно и безоблачно+23°C31 %711 мм2.1 м/с2 %
    08:00Ясно и безоблачно+28°C25 %712 мм1.7 м/с2 %
    11:00Ясно и безоблачно+33°C19 %713 мм2.6 м/с2 %
    14:00Ясно и безоблачно+36°C16 %712 мм2.6 м/с2 %
    17:00Ясно и безоблачно+37°C17 %711 мм2.7 м/с2 %
    20:00Ясно и безоблачно+30°C25 %710 мм2.5 м/с2 %
    23:00Ясно и безоблачно+27°C29 %710 мм0.9 м/с2 %
  • 29июля
    Понедельник
    +23°
    +37°
    Ясно и безоблачно
    ВремяПогодаТемператураВлажностьДавлениеВетер, м/сВероятность осадков
    02:00Ясно и безоблачно+25°C29 %709 мм2.1 м/с2 %
    05:00Ясно и безоблачно+24°C27 %709 мм3.0 м/с2 %
    08:00Ясно и безоблачно+28°C23 %710 мм2.7 м/с2 %
    11:00Ясно и безоблачно+33°C17 %710 мм2.8 м/с2 %
    14:00Ясно и безоблачно+36°C16 %709 мм2.1 м/с2 %
    17:00Ясно и безоблачно+37°C16 %709 мм2.9 м/с2 %
    20:00Ясно и безоблачно+32°C21 %709 мм2.1 м/с2 %
    23:00Ясно и безоблачно+28°C20 %709 мм4.4 м/с2 %
Мы используем cookies
Соглашаюсь